Airfield :
LOGIN :

Register | Disclaimer

   EN    FR    IT 

 










Legend :    VFR   Marginal VFR   IFR   Intensive IFR   Very Intensive IFR
Visi :
Ceiling :
>= 8 km
>= 3000ft
5 to 8 km
1000 to 3000 ft
1500m to 5 km
500 to 1000 ft
800 to 1500m
200 to 500 ft
< 800m
< 200 ft
Symbols :   Thunderstorms  Fog  Heavy snow  Heavy precipitations  Wind > 20 kt
SIGMETs :     Misc.  Thunderstorms  Icing  Turbulence  Mountain Waves  Volcanic Ashes






- Airport Elevation : 32 ft
- IATA code : LKZ


EGUL - RAF Lakenheath

CURRENT METAR :
  • 050456Z AUTO 21009KT 9999 OVC018 17/10 A2986 RMK AO2 SLP115 T01700104 $

EXPIRED METARs :
  • 050406Z AUTO 21011KT 9999 OVC019 17/10 A2985 RMK AO2 SLP111 $
  • 050356Z AUTO 22014KT 9999 OVC020 17/10 A2984 RMK AO2 CIG 019 RWY06 SLP108 T01690098 $
  • 050326Z AUTO 21007KT 9999 BKN023 17/10 A2985 RMK AO2 CIG 023V065 BKN V FEW CIG 021 RWY06 SLP111 $
  • 050256Z AUTO 21011KT 9999 OVC065 17/10 A2984 RMK AO2 SLP108 T01730097 56007 $

TAF TAF EGUL
Valid from the 04 at 14:00 until the 05 at 20:00 UTC


041400Z 0414/0520 22012G20KT 9999 BKN065 QNH2982INS
BECMG 0420/0421 21012KT 9999 BKN030 QNH2978INS
TEMPO 0503/0508 BKN013
BECMG 0509/0510 23015G25KT 9999 BKN020 BKN140 QNH2982INS
BECMG 0512/0513 23012G20KT 9999 SCT030 BKN140 QNH2980INS TX26/0514Z TN15/0506Z LAST NO AMDS AFT 0414 NEXT 0506



MET'MAP, your aeronautical weather chart ! - Copyright ORBIFLY December 2007 - Disclaimer

ORBIFLY MET'MAP TEAM :

Programming & Development : Alexandra Zaïnal
Concept & original design : Baudouin d'Aumeries
Assistance for programming : Marc-Olivier Méhu
Technical & hardware support : Manuel Goepfert

Contact : metmap@orbifly.com




SOURCES & CREDITS :

   NOAA